createdAt,value
2019-03-28T00:01:22.594Z,36.28
2019-03-28T00:03:27.087Z,36.17
2019-03-28T00:05:31.431Z,37.25
2019-03-28T00:07:36.059Z,38.63
2019-03-28T00:09:40.257Z,36.40
2019-03-28T00:11:44.465Z,37.45
2019-03-28T00:13:48.293Z,34.13
2019-03-28T00:15:52.504Z,37.17
2019-03-28T00:17:56.719Z,36.70
2019-03-28T00:20:04.522Z,36.00
2019-03-28T00:22:08.701Z,36.38
2019-03-28T00:24:16.855Z,35.92
2019-03-28T00:26:30.155Z,34.20
2019-03-28T00:28:26.989Z,35.85
2019-03-28T00:30:30.806Z,33.70
2019-03-28T00:32:34.635Z,33.33
2019-03-28T00:34:38.473Z,34.23
2019-03-28T00:36:42.615Z,35.35
2019-03-28T00:38:46.817Z,34.23
2019-03-28T00:40:50.935Z,33.70
2019-03-28T00:42:56.264Z,30.97
2019-03-28T00:45:02.213Z,31.85
2019-03-28T00:47:06.339Z,32.67
2019-03-28T00:49:10.145Z,30.25
2019-03-28T00:51:14.683Z,31.90
2019-03-28T00:53:18.867Z,30.27
2019-03-28T00:55:22.697Z,29.90
2019-03-28T00:57:26.533Z,30.43
2019-03-28T00:59:32.326Z,31.15
2019-03-28T01:01:36.235Z,30.90
2019-03-28T01:03:40.067Z,32.10
2019-03-28T01:05:44.239Z,32.15
2019-03-28T01:07:48.061Z,31.23
2019-03-28T01:09:52.285Z,32.90
2019-03-28T01:11:56.663Z,32.20
2019-03-28T01:14:00.505Z,31.48
2019-03-28T01:16:05.788Z,34.60
2019-03-28T01:18:09.928Z,35.75
2019-03-28T01:20:14.241Z,36.08
2019-03-28T01:22:18.067Z,33.55
2019-03-28T01:24:21.882Z,34.23
2019-03-28T01:26:25.756Z,32.03
2019-03-28T01:28:29.862Z,31.93
2019-03-28T01:30:34.075Z,34.85
2019-03-28T01:32:40.324Z,33.28
2019-03-28T01:34:44.476Z,29.87
2019-03-28T01:36:48.327Z,32.05
2019-03-28T01:38:52.707Z,34.05
2019-03-28T01:40:56.885Z,33.42
2019-03-28T01:43:00.979Z,33.23
2019-03-28T01:45:06.741Z,34.83
2019-03-28T01:47:10.941Z,33.98
2019-03-28T01:49:14.769Z,33.63
2019-03-28T01:51:18.642Z,33.55
2019-03-28T01:53:22.786Z,34.10
2019-03-28T01:55:30.248Z,36.73
2019-03-28T01:57:34.084Z,39.78
2019-03-28T01:59:38.382Z,39.75
2019-03-28T02:01:42.605Z,38.88
2019-03-28T02:03:46.431Z,41.23
2019-03-28T02:05:50.604Z,40.25
2019-03-28T02:07:58.451Z,37.93
2019-03-28T02:10:04.548Z,36.88
2019-03-28T02:12:08.388Z,39.80
2019-03-28T02:14:14.113Z,37.63
2019-03-28T02:16:18.247Z,38.15
2019-03-28T02:18:22.081Z,37.65
2019-03-28T02:20:26.242Z,39.73
2019-03-28T02:22:30.345Z,39.83
2019-03-28T02:24:34.551Z,40.78
2019-03-28T02:26:38.381Z,38.63
2019-03-28T02:28:42.577Z,39.18
2019-03-28T02:30:46.677Z,40.17
2019-03-28T02:32:50.525Z,38.25
2019-03-28T02:34:54.706Z,38.42
2019-03-28T02:36:58.547Z,36.65
2019-03-28T02:39:02.736Z,37.08
2019-03-28T02:41:06.928Z,33.85
2019-03-28T02:43:11.057Z,36.05
2019-03-28T02:45:15.253Z,34.43
2019-03-28T02:47:19.076Z,36.05
2019-03-28T02:49:23.192Z,32.48
2019-03-28T02:51:27.375Z,31.48
2019-03-28T02:53:31.493Z,31.15
2019-03-28T02:55:36.441Z,30.82
2019-03-28T02:57:42.333Z,31.45
2019-03-28T02:59:46.072Z,33.53
2019-03-28T03:01:50.284Z,32.98
2019-03-28T03:03:54.397Z,33.20
2019-03-28T03:05:58.255Z,40.12
2019-03-28T03:08:03.624Z,30.72
2019-03-28T03:10:09.389Z,29.87
2019-03-28T03:12:14.696Z,28.92
2019-03-28T03:14:18.840Z,28.45
2019-03-28T03:16:23.061Z,29.52
2019-03-28T03:18:27.165Z,27.27
2019-03-28T03:20:32.360Z,27.05
2019-03-28T03:22:36.756Z,28.10
2019-03-28T03:24:40.927Z,24.72
2019-03-28T03:26:46.256Z,28.23
2019-03-28T03:28:50.372Z,27.37
2019-03-28T03:30:54.490Z,28.17
2019-03-28T03:32:58.702Z,30.37
2019-03-28T03:35:02.911Z,35.52
2019-03-28T03:37:07.010Z,34.03
2019-03-28T03:39:10.854Z,31.62
2019-03-28T03:41:16.923Z,34.00
2019-03-28T03:43:20.771Z,31.62
2019-03-28T03:45:26.539Z,29.07
2019-03-28T03:47:30.364Z,27.35
2019-03-28T03:49:34.550Z,29.00
2019-03-28T03:51:38.769Z,29.10
2019-03-28T03:53:42.972Z,30.60
2019-03-28T03:55:46.797Z,28.30
2019-03-28T03:57:51.777Z,28.73
2019-03-28T03:59:56.846Z,29.02
2019-03-28T04:02:01.045Z,28.57
2019-03-28T04:04:04.857Z,30.80
2019-03-28T04:06:09.075Z,30.85
2019-03-28T04:08:13.272Z,32.15
2019-03-28T04:10:17.509Z,30.25
2019-03-28T04:12:21.321Z,29.25
2019-03-28T04:14:25.504Z,29.15
2019-03-28T04:16:29.714Z,29.02
2019-03-28T04:18:33.845Z,27.37
2019-03-28T04:20:40.912Z,29.37
2019-03-28T04:22:46.682Z,29.23
2019-03-28T04:24:50.515Z,32.25
2019-03-28T04:26:54.680Z,30.82
2019-03-28T04:28:58.883Z,35.83
2019-03-28T04:31:03.025Z,32.50
2019-03-28T04:33:07.206Z,31.15
2019-03-28T04:35:11.421Z,29.72
2019-03-28T04:37:15.280Z,27.65
2019-03-28T04:39:19.446Z,32.23
2019-03-28T04:41:23.266Z,30.82
2019-03-28T04:43:29.514Z,31.55
2019-03-28T04:45:35.348Z,30.20
2019-03-28T04:47:43.845Z,33.73
2019-03-28T04:49:48.073Z,32.65
2019-03-28T04:51:52.282Z,33.08
2019-03-28T04:53:56.599Z,32.45
2019-03-28T04:56:00.816Z,33.88
2019-03-28T04:58:04.776Z,33.25
2019-03-28T05:00:10.597Z,32.60
2019-03-28T05:02:14.779Z,35.90
2019-03-28T05:04:21.204Z,34.38
2019-03-28T05:06:25.166Z,34.38
2019-03-28T05:08:29.363Z,33.98
2019-03-28T05:10:33.481Z,32.58
2019-03-28T05:12:37.586Z,32.83
2019-03-28T05:14:41.806Z,33.02
2019-03-28T05:16:46.014Z,30.30
2019-03-28T05:18:50.228Z,31.45
2019-03-28T05:20:54.338Z,31.62
2019-03-28T05:22:58.548Z,32.23
2019-03-28T05:25:02.665Z,34.30
2019-03-28T05:27:07.339Z,32.88
2019-03-28T05:29:11.596Z,33.65
2019-03-28T05:31:15.728Z,32.90
2019-03-28T05:33:19.552Z,32.20
2019-03-28T05:35:23.717Z,31.25
2019-03-28T05:37:27.828Z,30.05
2019-03-28T05:39:32.523Z,30.00
2019-03-28T05:41:36.671Z,30.08
2019-03-28T05:43:45.314Z,26.25
2019-03-28T05:45:48.173Z,26.97
2019-03-28T05:47:51.998Z,29.10
2019-03-28T05:49:56.670Z,27.15
2019-03-28T05:52:00.312Z,29.27
2019-03-28T05:54:04.253Z,27.20
2019-03-28T05:56:08.410Z,25.92
2019-03-28T05:58:14.156Z,26.62
2019-03-28T06:00:18.361Z,23.80
2019-03-28T06:02:22.482Z,24.87
2019-03-28T06:04:26.566Z,24.45
2019-03-28T06:06:30.692Z,26.10
2019-03-28T06:08:34.830Z,25.15
2019-03-28T06:10:39.026Z,23.62
2019-03-28T06:12:42.856Z,23.45
2019-03-28T06:14:47.034Z,24.90
2019-03-28T06:16:51.254Z,23.92
2019-03-28T06:18:55.084Z,24.57
2019-03-28T06:20:59.615Z,22.17
2019-03-28T06:23:03.786Z,22.55
2019-03-28T06:25:08.111Z,22.45
2019-03-28T06:27:12.316Z,22.45
2019-03-28T06:29:23.814Z,21.90
2019-03-28T06:31:22.271Z,22.32
2019-03-28T06:33:26.386Z,22.27
2019-03-28T06:35:30.496Z,20.82
2019-03-28T06:37:34.341Z,20.37
2019-03-28T06:39:38.190Z,20.57
2019-03-28T06:41:44.345Z,23.62
2019-03-28T06:43:48.171Z,21.85
2019-03-28T06:45:52.314Z,20.05
2019-03-28T06:47:56.482Z,20.25
2019-03-28T06:50:00.972Z,21.20
2019-03-28T06:52:05.220Z,20.40
2019-03-28T06:54:09.439Z,27.07
2019-03-28T06:56:13.544Z,32.78
2019-03-28T06:58:17.673Z,30.72
2019-03-28T07:00:21.860Z,31.93
2019-03-28T07:02:25.975Z,33.48
2019-03-28T07:04:30.327Z,32.60
2019-03-28T07:06:34.633Z,33.90
2019-03-28T07:08:38.446Z,33.23
2019-03-28T07:10:42.636Z,31.70
2019-03-28T07:12:46.727Z,32.78
2019-03-28T07:14:50.570Z,28.75
2019-03-28T07:16:54.743Z,31.40
2019-03-28T07:18:59.436Z,33.20
2019-03-28T07:21:03.596Z,30.57
2019-03-28T07:23:07.807Z,32.15
2019-03-28T07:25:12.689Z,30.60
2019-03-28T07:27:17.300Z,31.15
2019-03-28T07:29:21.564Z,32.08
2019-03-28T07:31:25.767Z,31.93
2019-03-28T07:33:29.984Z,32.75
2019-03-28T07:35:33.834Z,31.75
2019-03-28T07:37:38.600Z,32.75
2019-03-28T07:39:42.940Z,31.12
2019-03-28T07:41:46.771Z,31.02
2019-03-28T07:43:50.584Z,32.28
2019-03-28T07:45:54.746Z,30.90
2019-03-28T07:47:58.971Z,31.07
2019-03-28T07:50:05.505Z,32.00
2019-03-28T07:52:09.653Z,31.10
2019-03-28T07:54:13.615Z,34.15
2019-03-28T07:56:17.419Z,33.15
2019-03-28T07:58:21.549Z,33.15
2019-03-28T08:00:25.363Z,33.15
2019-03-28T08:02:29.465Z,33.80
2019-03-28T08:04:33.741Z,33.05
2019-03-28T08:06:49.124Z,32.08
2019-03-28T08:08:44.350Z,33.08
2019-03-28T08:10:48.590Z,31.50
2019-03-28T08:12:52.986Z,30.72
2019-03-28T08:14:57.117Z,29.27
2019-03-28T08:17:00.971Z,30.60
2019-03-28T08:19:07.888Z,29.90
2019-03-28T08:21:11.186Z,28.10
2019-03-28T08:23:15.407Z,29.77
2019-03-28T08:25:19.238Z,29.07
2019-03-28T08:27:23.411Z,29.60
2019-03-28T08:29:27.289Z,33.15
2019-03-28T08:31:31.519Z,34.88
2019-03-28T08:33:38.603Z,32.75
2019-03-28T08:35:43.227Z,30.57
2019-03-28T08:37:47.433Z,30.95
2019-03-28T08:39:51.649Z,31.70
2019-03-28T08:41:55.887Z,30.75
2019-03-28T08:44:02.190Z,32.48
2019-03-28T08:46:08.751Z,30.82
2019-03-28T08:48:14.241Z,31.37
2019-03-28T08:50:18.141Z,28.30
2019-03-28T08:52:21.685Z,28.47
2019-03-28T08:54:25.231Z,27.93
2019-03-28T08:56:28.759Z,26.63
2019-03-28T08:58:32.638Z,28.47
2019-03-28T09:00:51.508Z,27.70
2019-03-28T09:02:45.265Z,26.77
2019-03-28T09:04:51.337Z,26.10
2019-03-28T09:06:54.081Z,25.63
2019-03-28T09:08:57.684Z,24.70
2019-03-28T09:11:01.614Z,24.83
2019-03-28T09:13:05.702Z,24.87
2019-03-28T09:15:10.065Z,22.00
2019-03-28T09:17:13.599Z,21.40
2019-03-28T09:19:17.441Z,20.13
2019-03-28T09:21:21.332Z,20.93
2019-03-28T09:23:24.865Z,19.50
2019-03-28T09:25:28.728Z,16.13
2019-03-28T09:27:32.635Z,15.50
2019-03-28T09:29:36.551Z,13.40
2019-03-28T09:31:40.491Z,11.90
2019-03-28T09:33:44.356Z,10.73
2019-03-28T09:35:48.277Z,10.47
2019-03-28T09:37:51.775Z,13.93
2019-03-28T09:39:55.338Z,14.30
2019-03-28T09:41:58.885Z,11.90
2019-03-28T09:44:05.981Z,12.10
2019-03-28T09:46:09.927Z,13.20
2019-03-28T09:48:13.848Z,14.17
2019-03-28T09:50:17.745Z,12.00
2019-03-28T09:52:21.309Z,12.63
2019-03-28T09:54:25.165Z,14.07
2019-03-28T09:56:29.061Z,12.83
2019-03-28T09:58:33.954Z,13.00
2019-03-28T10:00:37.921Z,12.27
2019-03-28T10:02:44.068Z,11.57
2019-03-28T10:04:47.080Z,11.23
2019-03-28T10:06:52.054Z,11.50
2019-03-28T10:08:55.973Z,9.67
2019-03-28T10:10:59.893Z,9.73
2019-03-28T10:13:03.434Z,11.33
2019-03-28T10:15:08.286Z,12.73
2019-03-28T10:17:11.828Z,13.87
2019-03-28T10:19:15.378Z,12.67
2019-03-28T10:21:19.184Z,11.63
2019-03-28T10:23:23.097Z,11.10
2019-03-28T10:25:27.021Z,11.27
2019-03-28T10:27:30.917Z,9.97
2019-03-28T10:29:34.471Z,11.63
2019-03-28T10:31:38.400Z,12.40
2019-03-28T10:33:42.637Z,10.17
2019-03-28T10:35:46.635Z,10.40
2019-03-28T10:37:50.547Z,9.57
2019-03-28T10:39:54.440Z,13.83
2019-03-28T10:41:58.353Z,11.63
2019-03-28T10:44:02.258Z,12.27
2019-03-28T10:46:06.194Z,12.80
2019-03-28T10:48:09.729Z,13.33
2019-03-28T10:50:13.671Z,13.20
2019-03-28T10:52:17.561Z,12.60
2019-03-28T10:54:21.470Z,14.73
2019-03-28T10:56:25.295Z,14.30
2019-03-28T10:58:29.285Z,16.37
2019-03-28T11:00:33.499Z,15.03
2019-03-28T11:02:38.766Z,14.93
2019-03-28T11:04:42.843Z,13.17
2019-03-28T11:06:46.379Z,13.13
2019-03-28T11:08:50.248Z,12.93
2019-03-28T11:10:53.801Z,13.50
2019-03-28T11:12:58.736Z,12.47
2019-03-28T11:15:02.572Z,14.07
2019-03-28T11:17:06.179Z,13.67
2019-03-28T11:19:09.715Z,13.47
2019-03-28T11:21:13.677Z,14.07
2019-03-28T11:23:17.467Z,13.23
2019-03-28T11:25:21.005Z,14.87
2019-03-28T11:27:24.891Z,12.37
2019-03-28T11:29:28.778Z,11.53
2019-03-28T11:31:45.282Z,11.57
2019-03-28T11:33:38.247Z,13.37
2019-03-28T11:35:42.160Z,12.90
2019-03-28T11:37:45.676Z,13.23
2019-03-28T11:39:49.561Z,11.97
2019-03-28T11:41:53.450Z,12.00
2019-03-28T11:43:56.989Z,11.43
2019-03-28T11:46:00.594Z,12.53
2019-03-28T11:48:04.126Z,12.17
2019-03-28T11:50:09.857Z,12.80
2019-03-28T11:52:13.661Z,9.63
2019-03-28T11:54:17.513Z,10.83
2019-03-28T11:56:21.423Z,12.20
2019-03-28T11:58:24.962Z,12.30
2019-03-28T12:00:29.656Z,11.40
2019-03-28T12:02:33.723Z,11.90
2019-03-28T12:04:38.853Z,12.73
2019-03-28T12:06:42.765Z,13.57
2019-03-28T12:08:46.690Z,13.37
2019-03-28T12:10:50.208Z,15.00
2019-03-28T12:12:55.204Z,13.40
2019-03-28T12:15:01.047Z,12.57
2019-03-28T12:17:04.858Z,13.13
2019-03-28T12:19:08.774Z,13.37
2019-03-28T12:21:12.661Z,15.63
2019-03-28T12:23:16.185Z,15.67
2019-03-28T12:25:19.727Z,14.47
2019-03-28T12:27:23.559Z,14.70
2019-03-28T12:29:28.849Z,14.90
2019-03-28T12:31:33.417Z,12.90
2019-03-28T12:33:37.328Z,12.07
2019-03-28T12:35:41.245Z,12.97
2019-03-28T12:37:45.062Z,13.93
2019-03-28T12:39:51.247Z,13.50
2019-03-28T12:41:55.105Z,12.37
2019-03-28T12:43:59.000Z,12.17
2019-03-28T12:46:02.919Z,12.47
2019-03-28T12:48:06.821Z,11.07
2019-03-28T12:50:12.081Z,11.13
2019-03-28T12:52:18.516Z,11.07
2019-03-28T12:54:22.523Z,10.30
2019-03-28T12:56:26.606Z,9.73
2019-03-28T12:58:30.465Z,9.90
2019-03-28T13:00:35.592Z,9.30
2019-03-28T13:02:39.200Z,9.97
2019-03-28T13:04:43.093Z,8.53
2019-03-28T13:06:46.975Z,9.17
2019-03-28T13:08:50.887Z,8.33
2019-03-28T13:10:54.800Z,9.70
2019-03-28T13:12:58.695Z,11.10
2019-03-28T13:15:02.610Z,11.80
2019-03-28T13:17:06.522Z,10.43
2019-03-28T13:19:10.047Z,9.63
2019-03-28T13:21:14.304Z,9.97
2019-03-28T13:23:18.241Z,8.77
2019-03-28T13:25:21.754Z,8.33
2019-03-28T13:27:25.624Z,9.17
2019-03-28T13:29:29.518Z,8.23
2019-03-28T13:31:33.436Z,9.97
2019-03-28T13:33:37.345Z,10.07
2019-03-28T13:35:40.892Z,10.00
2019-03-28T13:37:44.449Z,10.23
2019-03-28T13:39:48.340Z,8.77
2019-03-28T13:41:52.255Z,8.10
2019-03-28T13:43:56.683Z,7.60
2019-03-28T13:46:00.566Z,7.47
2019-03-28T13:48:04.164Z,8.07
2019-03-28T13:50:09.117Z,8.20
2019-03-28T13:52:13.004Z,7.97
2019-03-28T13:54:16.914Z,7.40
2019-03-28T13:56:20.728Z,8.50
2019-03-28T13:58:24.264Z,7.23
2019-03-28T14:00:32.580Z,7.23
2019-03-28T14:02:36.793Z,6.47
2019-03-28T14:04:40.652Z,6.07
2019-03-28T14:06:44.178Z,6.60
2019-03-28T14:08:47.732Z,7.90
2019-03-28T14:10:51.632Z,7.47
2019-03-28T14:12:55.548Z,7.17
2019-03-28T14:14:59.445Z,7.30
2019-03-28T14:17:03.271Z,8.00
2019-03-28T14:19:09.506Z,7.20
2019-03-28T14:21:13.047Z,6.83
2019-03-28T14:23:16.900Z,7.97
2019-03-28T14:25:20.827Z,8.47
2019-03-28T14:27:24.724Z,8.47
2019-03-28T14:29:30.045Z,7.90
2019-03-28T14:31:34.168Z,7.77
2019-03-28T14:33:38.178Z,7.50
2019-03-28T14:35:41.708Z,8.03
2019-03-28T14:37:45.576Z,8.00
2019-03-28T14:39:51.020Z,8.43
2019-03-28T14:41:54.927Z,7.33
2019-03-28T14:43:58.727Z,7.20
2019-03-28T14:46:02.646Z,7.20
2019-03-28T14:48:07.025Z,8.67
2019-03-28T14:50:11.573Z,7.73
2019-03-28T14:52:15.116Z,7.97
2019-03-28T14:54:19.562Z,8.70
2019-03-28T14:56:24.897Z,7.83
2019-03-28T14:58:29.837Z,7.73
2019-03-28T15:00:53.890Z,7.90
2019-03-28T15:02:57.838Z,7.53
2019-03-28T15:05:01.759Z,6.87
2019-03-28T15:07:07.306Z,7.97
2019-03-28T15:09:11.199Z,8.17
2019-03-28T15:11:15.106Z,8.43
2019-03-28T15:13:19.430Z,7.93
2019-03-28T15:15:23.329Z,7.77
2019-03-28T15:17:27.975Z,7.20
2019-03-28T15:19:31.573Z,7.33
2019-03-28T15:21:35.114Z,7.93
2019-03-28T15:23:38.626Z,6.83
2019-03-28T15:25:43.357Z,7.63
2019-03-28T15:27:47.272Z,8.27
2019-03-28T15:29:50.785Z,7.97
2019-03-28T15:31:54.660Z,10.30
2019-03-28T15:34:00.118Z,9.27
2019-03-28T15:36:04.024Z,8.00
2019-03-28T15:38:08.026Z,8.53
2019-03-28T15:40:11.933Z,9.07
2019-03-28T15:42:15.902Z,8.60
2019-03-28T15:44:19.370Z,8.30
2019-03-28T15:46:23.244Z,9.47
2019-03-28T15:48:27.145Z,9.43
2019-03-28T15:50:30.679Z,10.00
2019-03-28T15:52:34.516Z,9.17
2019-03-28T15:54:38.040Z,9.73
2019-03-28T15:56:41.952Z,9.33
2019-03-28T15:58:45.853Z,11.17
2019-03-28T16:00:49.747Z,15.50
2019-03-28T16:02:53.280Z,14.70
2019-03-28T16:04:58.683Z,9.70
2019-03-28T16:07:02.603Z,11.43
2019-03-28T16:09:07.635Z,13.20
2019-03-28T16:11:11.841Z,31.50
2019-03-28T16:13:15.949Z,46.37
2019-03-28T16:15:19.856Z,13.27
2019-03-28T16:17:23.771Z,8.60
2019-03-28T16:19:27.651Z,7.63
2019-03-28T16:21:32.731Z,11.10
2019-03-28T16:23:36.547Z,11.97
2019-03-28T16:25:40.395Z,9.57
2019-03-28T16:27:46.649Z,19.80
2019-03-28T16:29:50.200Z,9.33
2019-03-28T16:31:53.735Z,7.80
2019-03-28T16:34:06.799Z,7.07
2019-03-28T16:36:03.301Z,7.70
2019-03-28T16:38:07.211Z,6.37
2019-03-28T16:40:11.529Z,7.67
2019-03-28T16:42:15.841Z,6.53
2019-03-28T16:44:19.841Z,6.13
2019-03-28T16:46:23.757Z,6.03
2019-03-28T16:48:27.657Z,6.17
2019-03-28T16:50:31.389Z,5.33
2019-03-28T16:52:35.081Z,45.63
2019-03-28T16:54:38.985Z,17.70
2019-03-28T16:56:42.877Z,76.03
2019-03-28T16:58:46.777Z,18.03
2019-03-28T17:00:50.686Z,16.83
2019-03-28T17:02:56.358Z,6.70
2019-03-28T17:05:00.406Z,73.47
2019-03-28T17:07:04.755Z,19.43
2019-03-28T17:09:09.582Z,6.93
2019-03-28T17:11:13.388Z,14.13
2019-03-28T17:13:18.923Z,22.90
2019-03-28T17:15:25.740Z,5.20
2019-03-28T17:17:28.105Z,3.40
2019-03-28T17:19:31.628Z,6.53
2019-03-28T17:21:35.166Z,15.27
2019-03-28T17:23:39.059Z,7.00
2019-03-28T17:25:42.672Z,4.10
2019-03-28T17:27:46.717Z,5.00
2019-03-28T17:29:51.516Z,5.03
2019-03-28T17:31:55.404Z,5.57
2019-03-28T17:33:59.327Z,5.97
2019-03-28T17:36:14.721Z,7.10
2019-03-28T17:38:32.376Z,7.17
2019-03-28T17:40:45.018Z,6.17
2019-03-28T17:43:07.032Z,6.77
2019-03-28T17:45:27.193Z,7.27
2019-03-28T17:47:31.758Z,7.23
2019-03-28T17:49:36.269Z,8.33
2019-03-28T17:51:40.603Z,8.37
2019-03-28T17:53:44.121Z,7.27
2019-03-28T17:55:48.018Z,7.23
2019-03-28T17:57:52.647Z,10.23
2019-03-28T17:59:58.595Z,7.50
2019-03-28T18:02:02.472Z,6.70
2019-03-28T18:04:06.527Z,7.53
2019-03-28T18:06:10.280Z,8.20
2019-03-28T18:08:14.182Z,6.57
2019-03-28T18:10:18.195Z,6.47
2019-03-28T18:12:22.005Z,6.90
2019-03-28T18:14:25.577Z,8.87
2019-03-28T18:16:29.134Z,7.60
2019-03-28T18:18:32.629Z,6.97
2019-03-28T18:20:36.526Z,7.37
2019-03-28T18:22:40.993Z,7.27
2019-03-28T18:24:44.540Z,8.50
2019-03-28T18:26:48.420Z,7.80
2019-03-28T18:28:51.931Z,6.60
2019-03-28T18:30:55.840Z,7.10
2019-03-28T18:32:59.367Z,7.57
2019-03-28T18:35:05.814Z,8.07
2019-03-28T18:37:10.831Z,7.40
2019-03-28T18:39:14.519Z,7.70
2019-03-28T18:41:18.428Z,125.23
2019-03-28T18:43:22.337Z,20.33
2019-03-28T18:45:26.239Z,9.50
2019-03-28T18:47:30.352Z,7.67
2019-03-28T18:49:34.273Z,6.77
2019-03-28T18:51:38.477Z,32.63
2019-03-28T18:53:42.682Z,8.60
2019-03-28T18:55:46.587Z,6.67
2019-03-28T18:57:50.110Z,6.87
2019-03-28T18:59:54.285Z,6.53
2019-03-28T19:01:58.503Z,5.87
2019-03-28T19:04:03.981Z,9.70
2019-03-28T19:06:08.182Z,7.12
2019-03-28T19:08:12.015Z,9.68
2019-03-28T19:10:16.288Z,7.60
2019-03-28T19:12:21.125Z,8.20
2019-03-28T19:14:25.974Z,7.95
2019-03-28T19:16:30.139Z,8.20
2019-03-28T19:18:34.364Z,9.48
2019-03-28T19:20:38.567Z,8.13
2019-03-28T19:22:42.814Z,33.30
2019-03-28T19:24:46.809Z,12.33
2019-03-28T19:26:51.036Z,7.87
2019-03-28T19:28:56.300Z,8.85
2019-03-28T19:31:00.559Z,10.05
2019-03-28T19:33:06.856Z,7.87
2019-03-28T19:35:10.821Z,7.87
2019-03-28T19:37:15.141Z,7.62
2019-03-28T19:39:32.984Z,8.00
2019-03-28T19:41:37.891Z,8.45
2019-03-28T19:43:42.839Z,8.58
2019-03-28T19:45:46.673Z,8.60
2019-03-28T19:47:50.936Z,8.63
2019-03-28T19:49:54.765Z,8.28
2019-03-28T19:51:59.898Z,8.75
2019-03-28T19:54:04.347Z,9.05
2019-03-28T19:56:09.505Z,8.95
2019-03-28T19:58:16.815Z,8.38
2019-03-28T20:00:21.056Z,8.00
2019-03-28T20:02:24.883Z,8.63
2019-03-28T20:04:29.037Z,8.08
2019-03-28T20:06:33.160Z,9.20
2019-03-28T20:08:37.273Z,7.92
2019-03-28T20:10:41.477Z,8.38
2019-03-28T20:12:47.511Z,7.92
2019-03-28T20:14:51.172Z,8.25
2019-03-28T20:16:55.333Z,8.70
2019-03-28T20:19:02.110Z,8.48
2019-03-28T20:21:06.300Z,6.97
2019-03-28T20:23:12.379Z,8.45
2019-03-28T20:25:16.503Z,7.33
2019-03-28T20:27:21.437Z,8.23
2019-03-28T20:29:25.655Z,7.65
2019-03-28T20:31:29.849Z,7.67
2019-03-28T20:33:33.697Z,8.08
2019-03-28T20:35:38.580Z,7.67
2019-03-28T20:37:44.739Z,9.48
2019-03-28T20:39:49.059Z,9.18
2019-03-28T20:41:54.282Z,11.25
2019-03-28T20:43:58.135Z,8.18
2019-03-28T20:46:02.895Z,8.88
2019-03-28T20:48:07.242Z,8.78
2019-03-28T20:50:11.825Z,9.28
2019-03-28T20:52:15.970Z,8.23
2019-03-28T20:54:20.078Z,9.25
2019-03-28T20:56:24.015Z,8.77
2019-03-28T20:58:28.825Z,12.63
2019-03-28T21:00:39.380Z,9.88
2019-03-28T21:02:43.578Z,9.85
2019-03-28T21:04:49.756Z,9.33
2019-03-28T21:06:54.049Z,9.43
2019-03-28T21:08:57.979Z,10.40
2019-03-28T21:11:01.836Z,10.70
2019-03-28T21:13:06.086Z,11.88
2019-03-28T21:15:10.392Z,11.10
2019-03-28T21:17:16.652Z,10.75
2019-03-28T21:19:20.507Z,10.25
2019-03-28T21:21:24.344Z,10.18
2019-03-28T21:23:28.193Z,10.63
2019-03-28T21:25:32.397Z,11.28
2019-03-28T21:27:36.590Z,12.15
2019-03-28T21:29:48.684Z,12.65
2019-03-28T21:31:50.171Z,13.45
2019-03-28T21:33:55.037Z,13.08
2019-03-28T21:35:59.960Z,12.50
2019-03-28T21:38:04.107Z,12.88
2019-03-28T21:40:08.420Z,13.93
2019-03-28T21:42:12.636Z,13.78
2019-03-28T21:44:16.474Z,13.80
2019-03-28T21:46:20.318Z,13.68
2019-03-28T21:48:26.195Z,14.07
2019-03-28T21:50:30.408Z,13.62
2019-03-28T21:52:34.513Z,14.23
2019-03-28T21:54:38.724Z,15.40
2019-03-28T21:56:42.563Z,15.63
2019-03-28T21:58:46.753Z,14.47
2019-03-28T22:00:50.570Z,13.83
2019-03-28T22:02:54.966Z,14.30
2019-03-28T22:04:59.179Z,15.05
2019-03-28T22:07:06.570Z,16.80
2019-03-28T22:09:10.676Z,27.30
2019-03-28T22:11:14.891Z,16.62
2019-03-28T22:13:18.712Z,16.05
2019-03-28T22:15:24.354Z,14.43
2019-03-28T22:17:28.555Z,14.30
2019-03-28T22:19:32.662Z,16.60
2019-03-28T22:21:36.526Z,16.25
2019-03-28T22:23:40.680Z,15.90
2019-03-28T22:25:44.794Z,15.95
2019-03-28T22:27:48.634Z,16.12
2019-03-28T22:29:52.804Z,16.75
2019-03-28T22:31:56.970Z,17.52
2019-03-28T22:34:01.441Z,20.68
2019-03-28T22:36:05.302Z,17.07
2019-03-28T22:38:09.240Z,20.65
2019-03-28T22:40:14.988Z,18.92
2019-03-28T22:42:19.211Z,17.35
2019-03-28T22:44:24.808Z,20.72
2019-03-28T22:46:29.170Z,17.65
2019-03-28T22:48:33.381Z,17.82
2019-03-28T22:50:40.881Z,18.23
2019-03-28T22:52:45.069Z,16.87
2019-03-28T22:54:48.946Z,16.45
2019-03-28T22:56:53.096Z,17.00
2019-03-28T22:58:56.927Z,16.75
2019-03-28T23:01:01.524Z,18.35
2019-03-28T23:03:05.748Z,17.55
2019-03-28T23:05:10.572Z,15.98
2019-03-28T23:07:14.777Z,16.80
2019-03-28T23:09:18.981Z,16.25
2019-03-28T23:11:23.399Z,15.95
2019-03-28T23:13:27.614Z,17.73
2019-03-28T23:15:31.819Z,16.32
2019-03-28T23:17:36.040Z,17.67
2019-03-28T23:19:40.260Z,17.15
2019-03-28T23:21:44.104Z,17.12
2019-03-28T23:23:48.255Z,15.75
2019-03-28T23:25:54.811Z,17.15
2019-03-28T23:27:58.943Z,16.95
2019-03-28T23:30:03.287Z,17.10
2019-03-28T23:32:07.375Z,17.25
2019-03-28T23:34:11.206Z,17.27
2019-03-28T23:36:15.046Z,16.82
2019-03-28T23:38:19.899Z,16.85
2019-03-28T23:40:26.345Z,16.65
2019-03-28T23:42:30.184Z,18.30
2019-03-28T23:44:34.300Z,16.85
2019-03-28T23:46:38.156Z,17.12
2019-03-28T23:48:42.309Z,18.02
2019-03-28T23:50:46.165Z,18.70
2019-03-28T23:52:50.026Z,17.30
2019-03-28T23:54:54.641Z,18.80
2019-03-28T23:56:58.850Z,16.97
2019-03-28T23:59:03.048Z,17.32
